createdAt,value
2022-12-16T00:01:26.744Z,98723.09
2022-12-16T00:03:57.748Z,98727.63
2022-12-16T00:06:29.845Z,98730.34
2022-12-16T00:08:57.167Z,98726.34
2022-12-16T00:11:24.363Z,98724.06
2022-12-16T00:13:52.000Z,98728.69
2022-12-16T00:16:21.244Z,98735.94
2022-12-16T00:18:49.154Z,98738.88
2022-12-16T00:21:18.548Z,98732.97
2022-12-16T00:23:46.261Z,98756.31
2022-12-16T00:26:14.230Z,98741.84
2022-12-16T00:28:43.706Z,98720.53
2022-12-16T00:31:10.944Z,98710.28
2022-12-16T00:33:38.619Z,98713.75
2022-12-16T00:36:06.136Z,98710.34
2022-12-16T00:38:34.000Z,98708.69
2022-12-16T00:41:02.360Z,98717.78
2022-12-16T00:43:29.748Z,98714.22
2022-12-16T00:45:57.012Z,98712.50
2022-12-16T00:48:25.463Z,98717.59
2022-12-16T00:50:55.614Z,98716.47
2022-12-16T00:53:25.329Z,98714.22
2022-12-16T00:56:05.419Z,98706.34
2022-12-16T00:58:33.403Z,98699.63
2022-12-16T01:01:01.397Z,98702.63
2022-12-16T01:03:29.331Z,98693.53
2022-12-16T01:05:56.632Z,98693.19
2022-12-16T01:08:24.200Z,98692.81
2022-12-16T01:10:57.383Z,98693.38
2022-12-16T01:13:26.227Z,98691.28
2022-12-16T01:15:53.641Z,98680.47
2022-12-16T01:18:21.760Z,98691.81
2022-12-16T01:20:48.750Z,98684.63
2022-12-16T01:23:16.066Z,98663.16
2022-12-16T01:25:43.037Z,98666.59
2022-12-16T01:28:10.489Z,98668.06
2022-12-16T01:30:37.452Z,98669.31
2022-12-16T01:33:04.919Z,98662.81
2022-12-16T01:38:19.127Z,98645.38
2022-12-16T01:40:46.048Z,98645.47
2022-12-16T01:43:15.375Z,98629.31
2022-12-16T01:45:42.875Z,98619.63
2022-12-16T01:48:38.814Z,98621.63
2022-12-16T01:51:33.095Z,98626.78
2022-12-16T01:54:19.296Z,98618.06
2022-12-16T01:56:53.980Z,98624.25
2022-12-16T01:59:27.628Z,98625.44
2022-12-16T02:01:55.412Z,98614.09
2022-12-16T02:04:22.732Z,98605.31
2022-12-16T02:06:50.077Z,98609.84
2022-12-16T02:09:18.397Z,98604.69
2022-12-16T02:12:19.596Z,98609.03
2022-12-16T02:15:20.226Z,98614.63
2022-12-16T02:18:22.655Z,98609.81
2022-12-16T02:21:15.654Z,98614.28
2022-12-16T02:24:06.917Z,98606.03
2022-12-16T02:26:59.229Z,98604.00
2022-12-16T02:30:06.497Z,98595.22
2022-12-16T02:32:53.283Z,98593.59
2022-12-16T02:35:54.280Z,98600.28
2022-12-16T02:38:40.187Z,98589.97
2022-12-16T02:41:33.663Z,98571.19
2022-12-16T02:44:07.073Z,98566.00
2022-12-16T02:46:44.293Z,98556.31
2022-12-16T02:49:14.478Z,98543.72
2022-12-16T02:51:41.979Z,98548.53
2022-12-16T02:54:12.137Z,98546.00
2022-12-16T02:56:59.560Z,98547.53
2022-12-16T03:00:07.944Z,98538.66
2022-12-16T03:03:11.182Z,98539.56
2022-12-16T03:05:49.161Z,98544.28
2022-12-16T03:08:26.581Z,98541.56
2022-12-16T03:11:01.360Z,98538.72
2022-12-16T03:13:36.680Z,98547.53
2022-12-16T03:16:09.232Z,98540.91
2022-12-16T03:18:42.358Z,98536.91
2022-12-16T03:21:11.558Z,98543.63
2022-12-16T03:23:52.158Z,98533.66
2022-12-16T03:26:28.134Z,98534.84
2022-12-16T03:29:24.324Z,98508.72
2022-12-16T03:31:57.571Z,98507.81
2022-12-16T03:34:39.216Z,98490.22
2022-12-16T03:37:11.965Z,98491.75
2022-12-16T03:39:47.223Z,98488.78
2022-12-16T03:42:16.364Z,98474.66
2022-12-16T03:44:46.347Z,98478.63
2022-12-16T03:47:17.129Z,98472.00
2022-12-16T03:49:48.740Z,98469.00
2022-12-16T03:52:15.921Z,98451.59
2022-12-16T03:54:42.904Z,98450.72
2022-12-16T03:57:15.052Z,98449.06
2022-12-16T03:59:42.950Z,98442.09
2022-12-16T04:02:10.430Z,98440.28
2022-12-16T04:04:37.732Z,98443.81
2022-12-16T04:07:20.755Z,98435.91
2022-12-16T04:09:52.614Z,98428.63
2022-12-16T04:12:39.823Z,98415.31
2022-12-16T04:15:40.720Z,98400.72
2022-12-16T04:18:35.271Z,98411.34
2022-12-16T04:21:22.856Z,98411.41
2022-12-16T04:24:23.533Z,98401.28
2022-12-16T04:27:15.057Z,98407.16
2022-12-16T04:30:02.542Z,98423.84
2022-12-16T04:32:50.643Z,98419.72
2022-12-16T04:35:36.588Z,98415.84
2022-12-16T04:38:22.551Z,98419.09
2022-12-16T04:41:08.623Z,98420.47
2022-12-16T04:43:54.607Z,98422.66
2022-12-16T04:46:40.544Z,98416.94
2022-12-16T04:49:26.612Z,98412.50
2022-12-16T04:52:12.572Z,98416.75
2022-12-16T04:54:58.212Z,98426.63
2022-12-16T04:57:44.181Z,98429.44
2022-12-16T05:00:30.872Z,98423.06
2022-12-16T05:03:16.911Z,98420.56
2022-12-16T05:06:02.804Z,98412.03
2022-12-16T05:08:49.061Z,98407.44
2022-12-16T05:11:35.169Z,98403.91
2022-12-16T05:14:21.423Z,98391.09
2022-12-16T05:17:06.989Z,98389.00
2022-12-16T05:19:53.311Z,98380.94
2022-12-16T05:22:38.996Z,98372.34
2022-12-16T05:25:26.127Z,98376.44
2022-12-16T05:28:12.887Z,98368.34
2022-12-16T05:30:59.084Z,98362.31
2022-12-16T05:33:45.092Z,98355.38
2022-12-16T05:36:31.356Z,98359.06
2022-12-16T05:39:17.423Z,98360.72
2022-12-16T05:42:03.544Z,98372.47
2022-12-16T05:44:49.406Z,98389.44
2022-12-16T05:47:35.494Z,98402.56
2022-12-16T05:50:21.712Z,98400.47
2022-12-16T05:53:14.204Z,98396.25
2022-12-16T05:56:02.036Z,98403.16
2022-12-16T05:58:48.885Z,98404.56
2022-12-16T06:01:34.735Z,98401.50
2022-12-16T06:04:20.791Z,98398.88
2022-12-16T06:07:06.795Z,98387.00
2022-12-16T06:09:56.579Z,98384.03
2022-12-16T06:12:43.041Z,98382.63
2022-12-16T06:15:29.351Z,98369.22
2022-12-16T06:18:15.373Z,98369.94
2022-12-16T06:21:02.032Z,98365.34
2022-12-16T06:23:47.715Z,98359.06
2022-12-16T06:26:34.298Z,98356.28
2022-12-16T06:29:20.418Z,98367.84
2022-12-16T06:32:06.213Z,98367.47
2022-12-16T06:34:51.981Z,98368.75
2022-12-16T06:37:37.780Z,98373.00
2022-12-16T06:40:24.193Z,98368.50
2022-12-16T06:43:10.164Z,98366.03
2022-12-16T06:45:55.749Z,98369.75
2022-12-16T06:48:41.938Z,98364.53
2022-12-16T06:51:28.011Z,98363.34
2022-12-16T06:54:13.944Z,98355.81
2022-12-16T06:56:59.769Z,98353.94
2022-12-16T06:59:45.780Z,98339.72
2022-12-16T07:02:31.543Z,98348.31
2022-12-16T07:05:17.886Z,98335.78
2022-12-16T07:08:08.998Z,98340.03
2022-12-16T07:11:03.403Z,98336.16
2022-12-16T07:13:49.245Z,98345.06
2022-12-16T07:16:35.154Z,98345.06
2022-12-16T07:19:22.779Z,98344.19
2022-12-16T07:22:08.568Z,98344.31
2022-12-16T07:24:54.587Z,98345.28
2022-12-16T07:27:40.951Z,98343.06
2022-12-16T07:30:27.621Z,98343.31
2022-12-16T07:33:13.516Z,98352.13
2022-12-16T07:36:01.853Z,98345.44
2022-12-16T07:38:48.104Z,98345.53
2022-12-16T07:41:33.899Z,98337.84
2022-12-16T07:44:23.313Z,98338.06
2022-12-16T07:47:08.784Z,98342.78
2022-12-16T07:49:55.493Z,98339.81
2022-12-16T07:52:42.100Z,98339.59
2022-12-16T07:55:28.011Z,98331.91
2022-12-16T07:58:13.600Z,98331.84
2022-12-16T08:00:59.864Z,98329.03
2022-12-16T08:03:46.798Z,98325.78
2022-12-16T08:06:35.991Z,98332.66
2022-12-16T08:09:25.515Z,98327.38
2022-12-16T08:12:12.063Z,98328.16
2022-12-16T08:14:57.593Z,98318.88
2022-12-16T08:17:43.697Z,98321.75
2022-12-16T08:20:29.327Z,98334.78
2022-12-16T08:23:15.468Z,98326.50
2022-12-16T08:26:03.271Z,98333.03
2022-12-16T08:28:49.633Z,98338.31
2022-12-16T08:31:35.230Z,98329.34
2022-12-16T08:34:21.206Z,98337.13
2022-12-16T08:37:06.727Z,98333.16
2022-12-16T08:40:17.721Z,98339.03
2022-12-16T08:42:58.867Z,98332.28
2022-12-16T08:45:45.698Z,98324.00
2022-12-16T08:48:31.784Z,98330.25
2022-12-16T08:51:22.523Z,98339.59
2022-12-16T08:54:08.792Z,98338.78
2022-12-16T08:56:55.340Z,98330.75
2022-12-16T08:59:41.546Z,98339.09
2022-12-16T09:02:31.044Z,98343.28
2022-12-16T09:05:24.725Z,98342.56
2022-12-16T09:08:10.949Z,98354.06
2022-12-16T09:10:56.670Z,98345.44
2022-12-16T09:13:43.074Z,98347.41
2022-12-16T09:16:28.887Z,98347.03
2022-12-16T09:19:14.938Z,98354.81
2022-12-16T09:22:00.570Z,98357.19
2022-12-16T09:24:46.479Z,98356.44
2022-12-16T09:27:32.145Z,98358.06
2022-12-16T09:30:18.604Z,98350.03
2022-12-16T09:33:04.652Z,98353.66
2022-12-16T09:35:50.954Z,98359.16
2022-12-16T09:38:36.729Z,98357.78
2022-12-16T09:41:47.363Z,98360.03
2022-12-16T09:44:47.620Z,98366.94
2022-12-16T09:48:07.687Z,98374.47
2022-12-16T09:51:00.449Z,98367.19
2022-12-16T09:53:53.315Z,98377.72
2022-12-16T09:56:51.428Z,98374.06
2022-12-16T09:59:57.348Z,98361.91
2022-12-16T10:02:44.743Z,98362.31
2022-12-16T10:05:34.329Z,98372.06
2022-12-16T10:08:40.657Z,98359.69
2022-12-16T10:11:44.724Z,98365.78
2022-12-16T10:14:45.195Z,98370.06
2022-12-16T10:17:37.176Z,98375.31
2022-12-16T10:20:33.624Z,98376.31
2022-12-16T10:23:51.748Z,98376.94
2022-12-16T10:26:51.840Z,98374.72
2022-12-16T10:29:46.228Z,98368.22
2022-12-16T10:32:59.590Z,98372.69
2022-12-16T10:35:56.650Z,98384.22
2022-12-16T10:39:01.992Z,98389.50
2022-12-16T10:41:56.616Z,98392.31
2022-12-16T10:45:11.024Z,98398.41
2022-12-16T10:47:58.952Z,98393.16
2022-12-16T10:50:44.920Z,98389.50
2022-12-16T10:53:54.280Z,98392.13
2022-12-16T10:57:19.700Z,98392.38
2022-12-16T11:00:05.920Z,98368.03
2022-12-16T11:02:51.779Z,98380.19
2022-12-16T11:05:44.788Z,98393.19
2022-12-16T11:08:52.580Z,98395.00
2022-12-16T11:11:48.372Z,98392.00
2022-12-16T11:15:12.611Z,98399.88
2022-12-16T11:17:57.459Z,98394.78
2022-12-16T11:20:45.232Z,98400.25
2022-12-16T11:23:55.907Z,98404.91
2022-12-16T11:26:41.845Z,98414.63
2022-12-16T11:29:30.666Z,98420.34
2022-12-16T11:32:21.701Z,98420.34
2022-12-16T11:40:38.333Z,98419.16
2022-12-16T11:43:38.897Z,98414.69
2022-12-16T11:46:44.292Z,98425.22
2022-12-16T11:49:51.320Z,98419.31
2022-12-16T11:52:42.171Z,98423.59
2022-12-16T12:22:04.482Z,98441.91
2022-12-16T12:30:57.046Z,98460.97
2022-12-16T13:01:23.200Z,98478.41
2022-12-16T13:09:27.605Z,98506.34
2022-12-16T13:12:56.880Z,98510.78
2022-12-16T13:15:56.490Z,98519.31
2022-12-16T13:18:50.411Z,98529.84
2022-12-16T13:21:56.363Z,98529.84
2022-12-16T13:24:45.695Z,98527.84
2022-12-16T13:27:35.116Z,98530.47
2022-12-16T13:30:34.586Z,98544.47
2022-12-16T13:33:51.039Z,98552.56
2022-12-16T13:36:37.872Z,98556.41
2022-12-16T13:39:48.776Z,98569.00
2022-12-16T13:43:09.880Z,98566.53
2022-12-16T13:46:23.306Z,98573.66
2022-12-16T13:49:09.275Z,98577.28
2022-12-16T13:51:57.999Z,98568.75
2022-12-16T13:54:54.051Z,98570.75
2022-12-16T13:57:43.692Z,98569.13
2022-12-16T14:00:41.512Z,98567.09
2022-12-16T14:04:09.807Z,98567.09
2022-12-16T14:06:58.325Z,98568.53
2022-12-16T14:10:00.181Z,98568.38
2022-12-16T14:13:03.287Z,98576.91
2022-12-16T14:16:15.806Z,98584.81
2022-12-16T14:19:45.500Z,98591.69
2022-12-16T14:23:17.934Z,98606.50
2022-12-16T14:26:17.908Z,98606.50
2022-12-16T14:29:06.760Z,98609.16
2022-12-16T14:31:59.938Z,98626.97
2022-12-16T14:34:55.260Z,98628.59
2022-12-16T14:37:56.723Z,98626.34
2022-12-16T14:40:51.664Z,98641.13
2022-12-16T14:43:41.064Z,98636.50
2022-12-16T14:46:46.292Z,98638.50
2022-12-16T14:49:48.338Z,98642.78
2022-12-16T14:52:45.857Z,98659.41
2022-12-16T14:55:37.683Z,98656.78
2022-12-16T14:58:31.588Z,98656.78
2022-12-16T15:01:23.877Z,98661.22
2022-12-16T15:04:10.500Z,98661.22
2022-12-16T15:07:02.540Z,98658.75
2022-12-16T15:10:06.587Z,98673.78
2022-12-16T15:13:00.147Z,98666.50
2022-12-16T15:15:57.861Z,98674.41
2022-12-16T15:19:00.807Z,98673.84
2022-12-16T15:21:47.056Z,98672.03
2022-12-16T15:24:41.594Z,98678.47
2022-12-16T15:27:39.554Z,98689.38
2022-12-16T15:30:51.808Z,98693.66
2022-12-16T15:33:47.342Z,98697.28
2022-12-16T15:36:50.307Z,98702.56
2022-12-16T15:39:48.432Z,98711.47
2022-12-16T15:42:44.629Z,98728.09
2022-12-16T15:45:48.630Z,98719.19
2022-12-16T15:48:51.097Z,98728.72
2022-12-16T15:52:10.907Z,98745.91
2022-12-16T15:55:12.167Z,98744.25
2022-12-16T15:57:58.732Z,98746.91
2022-12-16T16:00:49.147Z,98751.19
2022-12-16T16:03:49.511Z,98751.19
2022-12-16T16:06:45.436Z,98744.25
2022-12-16T16:09:47.096Z,98744.66
2022-12-16T16:12:36.607Z,98760.47
2022-12-16T16:15:25.212Z,98762.91
2022-12-16T16:18:21.741Z,98770.59
2022-12-16T16:21:08.988Z,98773.91
2022-12-16T16:23:55.123Z,98777.16
2022-12-16T16:26:46.366Z,98780.78
2022-12-16T16:29:32.810Z,98777.16
2022-12-16T16:32:20.244Z,98794.59
2022-12-16T16:35:06.054Z,98812.41
2022-12-16T16:37:52.145Z,98812.41
2022-12-16T16:40:55.858Z,98817.31
2022-12-16T16:43:43.922Z,98829.03
2022-12-16T16:46:51.492Z,98833.50
2022-12-16T16:49:50.023Z,98834.31
2022-12-16T16:52:40.289Z,98842.41
2022-12-16T16:55:33.913Z,98844.03
2022-12-16T16:58:19.588Z,98838.75
2022-12-16T17:01:05.761Z,98828.22
2022-12-16T17:03:51.695Z,98832.66
2022-12-16T17:06:38.060Z,98840.75
2022-12-16T17:09:23.756Z,98857.19
2022-12-16T17:12:09.647Z,98858.38
2022-12-16T17:14:55.179Z,98853.31
2022-12-16T17:17:40.856Z,98864.47
2022-12-16T17:20:33.525Z,98864.81
2022-12-16T17:23:20.011Z,98859.56
2022-12-16T17:26:05.784Z,98872.38
2022-12-16T17:28:51.714Z,98863.84
2022-12-16T17:31:37.713Z,98871.56
2022-12-16T17:34:23.634Z,98867.94
2022-12-16T17:37:09.019Z,98868.75
2022-12-16T17:39:55.096Z,98874.03
2022-12-16T17:42:46.174Z,98877.31
2022-12-16T17:45:32.365Z,98884.19
2022-12-16T17:48:18.181Z,98890.09
2022-12-16T17:51:04.218Z,98896.38
2022-12-16T17:53:54.518Z,98905.91
2022-12-16T17:56:43.196Z,98896.56
2022-12-16T17:59:29.389Z,98904.47
2022-12-16T18:02:15.584Z,98903.66
2022-12-16T18:05:01.243Z,98904.00
2022-12-16T18:07:47.848Z,98914.53
2022-12-16T18:10:33.645Z,98910.91
2022-12-16T18:13:19.847Z,98910.09
2022-12-16T18:16:12.309Z,98903.00
2022-12-16T18:18:58.351Z,98910.91
2022-12-16T18:21:44.045Z,98908.78
2022-12-16T18:24:30.425Z,98925.44
2022-12-16T18:27:16.297Z,98935.63
2022-12-16T18:30:02.224Z,98940.88
2022-12-16T18:32:48.271Z,98942.53
2022-12-16T18:35:34.379Z,98940.53
2022-12-16T18:38:20.134Z,98940.53
2022-12-16T18:41:06.304Z,98937.91
2022-12-16T18:43:51.767Z,98938.88
2022-12-16T18:46:37.568Z,98943.19
2022-12-16T18:49:23.248Z,98959.97
2022-12-16T18:52:08.968Z,98966.91
2022-12-16T18:54:54.846Z,98970.16
2022-12-16T18:57:40.608Z,98964.91
2022-12-16T19:00:27.365Z,98972.16
2022-12-16T19:03:13.148Z,98973.78
2022-12-16T19:05:58.607Z,98984.31
2022-12-16T19:08:44.413Z,98980.69
2022-12-16T19:11:30.044Z,98981.69
2022-12-16T19:14:16.152Z,98980.69
2022-12-16T19:17:02.088Z,98983.16
2022-12-16T19:19:48.092Z,98979.88
2022-12-16T19:22:33.954Z,98994.88
2022-12-16T19:25:20.205Z,99000.97
2022-12-16T19:28:05.739Z,99004.59
2022-12-16T19:30:51.774Z,99010.69
2022-12-16T19:33:37.425Z,99012.31
2022-12-16T19:36:23.508Z,99024.50
2022-12-16T19:39:09.402Z,99023.84
2022-12-16T19:41:56.949Z,99015.94
2022-12-16T19:44:42.485Z,99029.75
2022-12-16T19:47:28.700Z,99028.13
2022-12-16T19:50:14.127Z,99033.59
2022-12-16T19:52:59.882Z,99029.13
2022-12-16T19:55:45.435Z,99034.56
2022-12-16T19:58:31.551Z,99035.41
2022-12-16T20:01:17.418Z,99029.13
2022-12-16T20:04:04.033Z,99031.75
2022-12-16T20:06:49.853Z,99033.75
2022-12-16T20:09:36.170Z,99029.13
2022-12-16T20:12:22.081Z,99036.22
2022-12-16T20:15:08.108Z,99044.28
2022-12-16T20:17:56.142Z,99062.59
2022-12-16T20:20:42.079Z,99067.03
2022-12-16T20:23:27.847Z,99070.31
2022-12-16T20:26:19.801Z,99068.66
2022-12-16T20:29:05.849Z,99082.47
2022-12-16T20:31:52.451Z,99089.38
2022-12-16T20:34:41.763Z,99087.75
2022-12-16T20:37:27.907Z,99085.78
2022-12-16T20:40:13.654Z,99085.59
2022-12-16T20:42:59.812Z,99074.41
2022-12-16T20:45:45.592Z,99083.94
2022-12-16T20:48:35.517Z,99090.03
2022-12-16T20:51:26.933Z,99096.31
2022-12-16T20:54:13.483Z,99103.22
2022-12-16T20:56:59.813Z,99106.47
2022-12-16T20:59:45.812Z,99115.41
2022-12-16T21:02:34.166Z,99113.75
2022-12-16T21:05:21.848Z,99110.47
2022-12-16T21:08:07.845Z,99109.66
2022-12-16T21:10:56.015Z,99113.09
2022-12-16T21:13:42.895Z,99121.84
2022-12-16T21:16:29.600Z,99133.22
2022-12-16T21:19:15.405Z,99122.66
2022-12-16T21:22:01.758Z,99125.94
2022-12-16T21:24:47.251Z,99119.66
2022-12-16T21:27:33.082Z,99117.03
2022-12-16T21:30:18.832Z,99119.50
2022-12-16T21:33:04.540Z,99121.94
2022-12-16T21:35:50.432Z,99122.78
2022-12-16T21:38:37.480Z,99131.31
2022-12-16T21:41:23.195Z,99129.50
2022-12-16T21:44:12.972Z,99147.63
2022-12-16T21:46:59.011Z,99144.34
2022-12-16T21:49:44.909Z,99152.91
2022-12-16T21:52:30.668Z,99132.97
2022-12-16T21:55:16.629Z,99151.25
2022-12-16T21:58:02.423Z,99157.16
2022-12-16T22:00:50.338Z,99163.44
2022-12-16T22:03:39.315Z,99166.06
2022-12-16T22:06:25.771Z,99172.34
2022-12-16T22:09:11.753Z,99181.91
2022-12-16T22:11:57.989Z,99181.91
2022-12-16T22:14:43.659Z,99182.53
2022-12-16T22:17:29.994Z,99167.69
2022-12-16T22:20:15.683Z,99172.34
2022-12-16T22:23:01.655Z,99174.31
2022-12-16T22:25:47.431Z,99175.97
2022-12-16T22:28:33.143Z,99174.31
2022-12-16T22:31:18.855Z,99164.75
2022-12-16T22:34:08.812Z,99168.22
2022-12-16T22:36:57.363Z,99173.50
2022-12-16T22:39:47.302Z,99177.94
2022-12-16T22:42:33.160Z,99172.66
2022-12-16T22:45:19.798Z,99174.31
2022-12-16T22:48:05.211Z,99174.13
2022-12-16T22:50:51.172Z,99177.59
2022-12-16T22:53:37.427Z,99175.97
2022-12-16T22:56:23.383Z,99165.78
2022-12-16T22:59:09.241Z,99173.69
2022-12-16T23:01:55.063Z,99167.41
2022-12-16T23:04:42.879Z,99174.31
2022-12-16T23:07:28.961Z,99171.69
2022-12-16T23:10:14.556Z,99163.78
2022-12-16T23:13:01.102Z,99169.69
2022-12-16T23:15:47.038Z,99170.53
2022-12-16T23:18:32.843Z,99179.25
2022-12-16T23:21:18.741Z,99183.50
2022-12-16T23:24:04.571Z,99198.34
2022-12-16T23:26:50.316Z,99201.97
2022-12-16T23:29:36.472Z,99212.50
2022-12-16T23:32:22.066Z,99212.50
2022-12-16T23:35:07.925Z,99205.63
2022-12-16T23:37:53.572Z,99207.25
2022-12-16T23:40:42.199Z,99203.97
2022-12-16T23:43:27.848Z,99201.16
2022-12-16T23:46:30.939Z,99205.63
2022-12-16T23:49:16.891Z,99201.31
2022-12-16T23:52:02.636Z,99202.97
2022-12-16T23:54:48.135Z,99199.53
2022-12-16T23:57:34.237Z,99200.34
